Truro, Iowa
Current Conditions -  °F | °C
As of 11:15 PM on Wednesday 22 Oct 2014 (Local Time) from KI75 Reporting Station
Scattered Clouds Scattered Clouds  
Wind Chill: 55°   Ceiling: Unl
Heat Index: 55°   Visibility: 10mi
Dew Point: 45°   Wind: 9mph
Humidity: 67%   Direction: 150°SSE
Pressure: 30.11"   Gusts: NA
Location:  41.21°N, 93.85°W
Report Text: KI75 230415Z AUTO 15008KT 10SM SCT080 13/07 A3011 RMK AO2 T01300070
Loading
Personal Weather Stations






























Interactive Weather Map
Tropical Storm Tracking
New forecast layout! Learn more

10-Day Weather Forecast

Advertisements
Track Severe Weather on mobile